ADDS TAF Data INFO
IDs: Format: Raw Decoded Include METARs

Data at: 1936 UTC 19 Jul 2018

METAR for:KANB (Anniston Metro, AL, US)
Text:KANB 191928Z AUTO 17003KT 10SM VCTS CLR 33/18 A2991 RMK AO2 LTG DSNT NE-SE T03330178
Temperature: 33.3°C ( 92°F)
Dewpoint: 17.8°C ( 64°F) [RH = 40%]
Pressure (altimeter):29.91 inches Hg (1013.0 mb)
Winds:from the S (170 degrees) at 3 MPH (3 knots; 1.5 m/s)
Visibility:10 or more sm (16+ km)
Ceiling:at least 12,000 feet AGL
Clouds:sky clear below 12,000 feet AGL
Weather:VCTS (thunderstorm in vicinity)
QC Flag:automated observation with no human augmentation

TAF for:KANB (Anniston Metro, AL, US) issued at 1739 UTC 19 Jul 2018
Text:KANB 191739Z 1918/2018 VRB05KT P6SM VCSH SCT050 BKN150
Forecast period:1800 UTC 19 July 2018 to 0200 UTC 20 July 2018
Forecast type:FROM: standard forecast or significant change
Winds:variable direction winds at 6 MPH (5 knots; 2.6 m/s)
Visibility:6 or more sm (10+ km)
Ceiling:15000 feet AGL
Clouds: scattered clouds at 5000 feet AGL, broken clouds at 15000 feet AGL
Weather:VCSH (showers in vicinity)
Text:FM200200 VRB03KT P6SM FEW050 BKN250
Forecast period:0200 to 1800 UTC 20 July 2018
Forecast type:FROM: standard forecast or significant change
Winds:variable direction winds at 3 MPH (3 knots; 1.5 m/s)
Visibility:6 or more sm (10+ km)
Ceiling:25000 feet AGL
Clouds: few clouds at 5000 feet AGL, broken clouds at 25000 feet AGL